Galatia, Kansas
Current Conditions -  °F | °C
As of 11:35 PM on Saturday 22 Nov 2014 (Local Time) from KGBD Reporting Station
Overcast Overcast  
Wind Chill: 13°   Ceiling: 1400
Heat Index: 13°   Visibility: 10mi
Dew Point:   Wind: 21mph
Humidity: 72%   Direction: 190°S
Pressure: 29.56"   Gusts: 29mph
Location:  38.523°N, 99.0878°W
Report Text: KGBD 230535Z AUTO 19018G25KT 10SM OVC014 13/08 A2956 RMK AO1
Loading
Personal Weather Stations






























Interactive Weather Map New forecast layout! Learn more

10-Day Weather Forecast

Advertisements
Track Severe Weather on mobile